Datos. Málaga, Centro Meteorológico

Actualizado: viernes, 01 agosto 2014 a las 09:32 hora oficial
Ind. climatológico: 6156X -  Altitud (m): 54
Latitud36° 43' 4'' N - Longitud4° 28' 54'' O -  PosiciónVer localización
MunicipioMálaga (Málaga) - Ver predicción
Registros - de
Fecha y hora oficial

 

Temp. (°C)

 

V. vien. (km/h)

 

Dir. viento

 

Racha (km/h)

 

Dir. racha

 

Prec. (mm)

 

Presión (hPa)

 

Tend. (hPa)

 

Humedad (%)

 

01/08/2014 09:00 22.2 15 8-OesteOeste 30 8-OesteOeste 0.0 1007.3 0.9 66
01/08/2014 08:00 20.6 15 8-OesteOeste 26 8-OesteOeste 0.0 1006.9 0.7 70
01/08/2014 07:00 20.5 14 8-OesteOeste 27 8-OesteOeste 0.0 1006.6 0.2 69
01/08/2014 06:00 21.6 14 8-OesteOeste 26 8-OesteOeste 0.0 1006.4 -0.2 61
01/08/2014 05:00 22.5 11 8-OesteOeste 17 8-OesteOeste 0.0 1006.2 -0.6 58
01/08/2014 04:00 23.2 10 8-OesteOeste 15 8-OesteOeste 0.0 1006.4 -0.3 55
01/08/2014 03:00 24.2 10 8-OesteOeste 14 8-OesteOeste 0.0 1006.6 -0.3 53
01/08/2014 02:00 25.2 7 8-OesteOeste 12 8-OesteOeste 0.0 1006.8 -0.1 52
01/08/2014 01:00 26.3 6 8-OesteOeste 11 8-OesteOeste 0.0 1006.7 0.4 50
01/08/2014 00:00 26.8 6 8-OesteOeste 10 8-OesteOeste 0.0 1006.9 1.2 52
31/07/2014 23:00 25.3 5 8-OesteOeste 10 8-OesteOeste 0.0 1006.9 1.2 57
31/07/2014 22:00 25.5 4 5-SudesteSudeste 6 5-SudesteSudeste 0.0 1006.3 0.5 55
31/07/2014 21:00 26.6 9 4-EsteEste 17 4-EsteEste 0.0 1005.7 -0.5 50
31/07/2014 20:00 27.9 12 4-EsteEste 19 4-EsteEste 0.0 1005.7 -1.3 47
31/07/2014 19:00 29.0 14 4-EsteEste 23 4-EsteEste 0.0 1005.8 -1.9 46
31/07/2014 18:00 29.0 15 4-EsteEste 26 4-EsteEste 0.0 1006.2 -2.0 45
31/07/2014 17:00 28.8 17 4-EsteEste 30 4-EsteEste 0.0 1007.0 -1.8 48
31/07/2014 16:00 28.7 18 4-EsteEste 30 4-EsteEste 0.0 1007.7 -1.5 48
31/07/2014 15:00 28.9 17 5-SudesteSudeste 26 4-EsteEste 0.0 1008.2 -1.3 46
31/07/2014 14:00 28.5 15 5-SudesteSudeste 22 5-SudesteSudeste 0.0 1008.8 -0.3 52
31/07/2014 13:00 27.6 13 5-SudesteSudeste 19 5-SudesteSudeste 0.0 1009.2 0.1 63
31/07/2014 12:00 26.7 12 5-SudesteSudeste 19 5-SudesteSudeste 0.0 1009.5 0.6 67
31/07/2014 11:00 26.9 9 5-SudesteSudeste 17 5-SudesteSudeste 0.0 1009.1 0.6 67
31/07/2014 10:00 25.7 4 5-SudesteSudeste 9 5-SudesteSudeste 0.0 1009.1 0.7 75
First Page First Page First Page Last Page
Lineas por página
Página   de  
Compartir:  
En esta página podrá acceder, en forma gráfica y en tabla, a las observaciones horarias de las últimas 24 horas, así como a los valores extremos y acumulados desde las 00 horas del día hasta la hora de actualización indicada, obtenidos en la red de estaciones de AEMET. También podrá acceder a los resúmenes diarios de estas estaciones en los últimos 7 días.

En el mapa aparecen estaciones con valor númerico y otras representadas por un punto. En las primeras, al pasar el ratón, aparece un desplegable con la información completa de la estación. Las estaciones representadas por un punto son estaciones de la red climatológica, con transmisión de datos superior a la hora, por lo que al seleccionarlas pueden no aparecer los últimos datos.

Los datos presentados han sido únicamente sometidos a controles automáticos de calidad en tiempo real, por lo que no puede garantizarse la ausencia de errores.
© AEMET. Autorizado el uso de la información y su reproducción citando a AEMET como autora de la misma.